sensor_id;sensor_type;location;lat;lon;timestamp;P1;durP1;ratioP1;P2;durP2;ratioP2
5995;SDS011;3026;53.612;7.278;2023-04-06T00:00:25;11.97;;;6.10;;
5995;SDS011;3026;53.612;7.278;2023-04-06T00:02:52;12.13;;;7.30;;
5995;SDS011;3026;53.612;7.278;2023-04-06T00:05:19;10.87;;;6.80;;
5995;SDS011;3026;53.612;7.278;2023-04-06T00:07:46;9.67;;;7.20;;
5995;SDS011;3026;53.612;7.278;2023-04-06T00:10:14;7.43;;;6.07;;
5995;SDS011;3026;53.612;7.278;2023-04-06T00:12:42;9.00;;;6.57;;
5995;SDS011;3026;53.612;7.278;2023-04-06T00:15:10;8.90;;;6.93;;
5995;SDS011;3026;53.612;7.278;2023-04-06T00:17:38;10.33;;;6.73;;
5995;SDS011;3026;53.612;7.278;2023-04-06T00:20:06;10.77;;;7.27;;
5995;SDS011;3026;53.612;7.278;2023-04-06T00:22:33;10.07;;;6.87;;
5995;SDS011;3026;53.612;7.278;2023-04-06T00:25:00;12.40;;;7.37;;
5995;SDS011;3026;53.612;7.278;2023-04-06T00:27:27;9.93;;;7.27;;
5995;SDS011;3026;53.612;7.278;2023-04-06T00:29:55;12.50;;;7.07;;
5995;SDS011;3026;53.612;7.278;2023-04-06T00:32:22;10.13;;;6.80;;
5995;SDS011;3026;53.612;7.278;2023-04-06T00:34:50;10.33;;;7.70;;
5995;SDS011;3026;53.612;7.278;2023-04-06T00:37:17;15.87;;;7.53;;
5995;SDS011;3026;53.612;7.278;2023-04-06T00:39:44;9.97;;;6.40;;
5995;SDS011;3026;53.612;7.278;2023-04-06T00:42:12;9.60;;;6.80;;
5995;SDS011;3026;53.612;7.278;2023-04-06T00:44:39;9.93;;;7.33;;
5995;SDS011;3026;53.612;7.278;2023-04-06T00:47:07;7.57;;;5.53;;
5995;SDS011;3026;53.612;7.278;2023-04-06T00:49:34;8.23;;;5.73;;
5995;SDS011;3026;53.612;7.278;2023-04-06T00:52:03;9.10;;;6.63;;
5995;SDS011;3026;53.612;7.278;2023-04-06T00:54:30;8.80;;;6.57;;
5995;SDS011;3026;53.612;7.278;2023-04-06T00:56:57;11.83;;;7.27;;
5995;SDS011;3026;53.612;7.278;2023-04-06T00:59:24;11.23;;;6.50;;
5995;SDS011;3026;53.612;7.278;2023-04-06T01:01:52;8.30;;;6.17;;
5995;SDS011;3026;53.612;7.278;2023-04-06T01:04:19;8.80;;;6.67;;
5995;SDS011;3026;53.612;7.278;2023-04-06T01:06:48;9.83;;;6.43;;
5995;SDS011;3026;53.612;7.278;2023-04-06T01:09:17;8.57;;;6.90;;
5995;SDS011;3026;53.612;7.278;2023-04-06T01:11:44;8.40;;;6.17;;
5995;SDS011;3026;53.612;7.278;2023-04-06T01:14:11;7.40;;;6.17;;
5995;SDS011;3026;53.612;7.278;2023-04-06T01:16:38;8.27;;;6.57;;
5995;SDS011;3026;53.612;7.278;2023-04-06T01:19:07;9.97;;;6.60;;
5995;SDS011;3026;53.612;7.278;2023-04-06T01:21:34;7.77;;;6.27;;
5995;SDS011;3026;53.612;7.278;2023-04-06T01:24:03;9.83;;;6.40;;
5995;SDS011;3026;53.612;7.278;2023-04-06T01:26:31;6.83;;;5.83;;
5995;SDS011;3026;53.612;7.278;2023-04-06T01:28:59;10.10;;;6.30;;
5995;SDS011;3026;53.612;7.278;2023-04-06T01:31:26;9.80;;;6.40;;
5995;SDS011;3026;53.612;7.278;2023-04-06T01:33:53;9.97;;;6.50;;
5995;SDS011;3026;53.612;7.278;2023-04-06T01:36:21;8.13;;;6.63;;
5995;SDS011;3026;53.612;7.278;2023-04-06T01:38:48;9.50;;;7.30;;
5995;SDS011;3026;53.612;7.278;2023-04-06T01:41:17;9.23;;;7.00;;
5995;SDS011;3026;53.612;7.278;2023-04-06T01:43:44;9.20;;;6.90;;
5995;SDS011;3026;53.612;7.278;2023-04-06T01:46:11;10.43;;;7.17;;
5995;SDS011;3026;53.612;7.278;2023-04-06T01:48:38;10.07;;;6.90;;
5995;SDS011;3026;53.612;7.278;2023-04-06T01:51:05;10.90;;;7.27;;
5995;SDS011;3026;53.612;7.278;2023-04-06T01:53:32;10.07;;;7.23;;
5995;SDS011;3026;53.612;7.278;2023-04-06T01:55:59;8.40;;;6.70;;
5995;SDS011;3026;53.612;7.278;2023-04-06T01:58:27;11.67;;;7.37;;
5995;SDS011;3026;53.612;7.278;2023-04-06T02:00:55;13.37;;;7.33;;
5995;SDS011;3026;53.612;7.278;2023-04-06T02:03:21;9.90;;;7.80;;
5995;SDS011;3026;53.612;7.278;2023-04-06T02:05:48;10.60;;;7.90;;
5995;SDS011;3026;53.612;7.278;2023-04-06T02:08:15;10.37;;;7.73;;
5995;SDS011;3026;53.612;7.278;2023-04-06T02:10:42;14.03;;;8.33;;
5995;SDS011;3026;53.612;7.278;2023-04-06T02:13:09;10.63;;;7.53;;
5995;SDS011;3026;53.612;7.278;2023-04-06T02:15:38;10.77;;;7.83;;
5995;SDS011;3026;53.612;7.278;2023-04-06T02:18:05;10.10;;;7.53;;
5995;SDS011;3026;53.612;7.278;2023-04-06T02:20:32;9.83;;;7.33;;
5995;SDS011;3026;53.612;7.278;2023-04-06T02:22:59;10.63;;;7.80;;
5995;SDS011;3026;53.612;7.278;2023-04-06T02:25:26;13.63;;;8.40;;
5995;SDS011;3026;53.612;7.278;2023-04-06T02:27:54;10.60;;;7.80;;
5995;SDS011;3026;53.612;7.278;2023-04-06T02:30:21;9.93;;;7.67;;
5995;SDS011;3026;53.612;7.278;2023-04-06T02:32:49;13.67;;;8.37;;
5995;SDS011;3026;53.612;7.278;2023-04-06T02:35:16;9.10;;;7.63;;
5995;SDS011;3026;53.612;7.278;2023-04-06T02:37:43;11.67;;;7.40;;
5995;SDS011;3026;53.612;7.278;2023-04-06T02:40:10;11.70;;;7.80;;
5995;SDS011;3026;53.612;7.278;2023-04-06T02:42:37;11.80;;;7.67;;
5995;SDS011;3026;53.612;7.278;2023-04-06T02:45:04;11.90;;;8.10;;
5995;SDS011;3026;53.612;7.278;2023-04-06T02:47:32;11.50;;;7.70;;
5995;SDS011;3026;53.612;7.278;2023-04-06T02:50:01;12.60;;;9.10;;
5995;SDS011;3026;53.612;7.278;2023-04-06T02:52:28;11.67;;;7.87;;
5995;SDS011;3026;53.612;7.278;2023-04-06T02:54:55;12.90;;;8.50;;
5995;SDS011;3026;53.612;7.278;2023-04-06T02:57:22;9.93;;;7.87;;
5995;SDS011;3026;53.612;7.278;2023-04-06T02:59:49;13.27;;;8.37;;
5995;SDS011;3026;53.612;7.278;2023-04-06T03:02:16;11.77;;;7.40;;
5995;SDS011;3026;53.612;7.278;2023-04-06T03:04:43;15.47;;;8.70;;
5995;SDS011;3026;53.612;7.278;2023-04-06T03:07:12;12.53;;;8.17;;
5995;SDS011;3026;53.612;7.278;2023-04-06T03:09:39;12.93;;;8.20;;
5995;SDS011;3026;53.612;7.278;2023-04-06T03:12:06;9.87;;;7.80;;
5995;SDS011;3026;53.612;7.278;2023-04-06T03:14:33;11.23;;;8.30;;
5995;SDS011;3026;53.612;7.278;2023-04-06T03:17:00;11.33;;;7.70;;
5995;SDS011;3026;53.612;7.278;2023-04-06T03:19:27;15.20;;;8.73;;
5995;SDS011;3026;53.612;7.278;2023-04-06T03:21:54;12.73;;;8.20;;
5995;SDS011;3026;53.612;7.278;2023-04-06T03:24:22;12.47;;;8.40;;
5995;SDS011;3026;53.612;7.278;2023-04-06T03:26:49;15.73;;;8.33;;
5995;SDS011;3026;53.612;7.278;2023-04-06T03:29:16;14.07;;;8.57;;
5995;SDS011;3026;53.612;7.278;2023-04-06T03:31:43;13.37;;;9.10;;
5995;SDS011;3026;53.612;7.278;2023-04-06T03:34:10;10.30;;;7.87;;
5995;SDS011;3026;53.612;7.278;2023-04-06T03:36:37;13.17;;;8.27;;
5995;SDS011;3026;53.612;7.278;2023-04-06T03:39:04;12.53;;;8.30;;
5995;SDS011;3026;53.612;7.278;2023-04-06T03:41:32;15.80;;;8.87;;
5995;SDS011;3026;53.612;7.278;2023-04-06T03:44:00;15.23;;;8.73;;
5995;SDS011;3026;53.612;7.278;2023-04-06T03:46:27;15.23;;;8.73;;
5995;SDS011;3026;53.612;7.278;2023-04-06T03:48:54;10.57;;;8.13;;
5995;SDS011;3026;53.612;7.278;2023-04-06T03:51:20;17.83;;;9.87;;
5995;SDS011;3026;53.612;7.278;2023-04-06T03:53:47;11.37;;;8.03;;
5995;SDS011;3026;53.612;7.278;2023-04-06T03:56:14;13.47;;;9.67;;
5995;SDS011;3026;53.612;7.278;2023-04-06T03:58:42;14.67;;;9.00;;
5995;SDS011;3026;53.612;7.278;2023-04-06T04:01:10;16.60;;;9.83;;
5995;SDS011;3026;53.612;7.278;2023-04-06T04:03:37;14.77;;;9.57;;
5995;SDS011;3026;53.612;7.278;2023-04-06T04:06:04;16.20;;;9.53;;
5995;SDS011;3026;53.612;7.278;2023-04-06T04:08:31;14.17;;;9.53;;
5995;SDS011;3026;53.612;7.278;2023-04-06T04:10:58;14.60;;;9.57;;
5995;SDS011;3026;53.612;7.278;2023-04-06T04:13:25;15.43;;;9.73;;
5995;SDS011;3026;53.612;7.278;2023-04-06T04:15:54;15.03;;;9.73;;
5995;SDS011;3026;53.612;7.278;2023-04-06T04:18:21;13.73;;;10.30;;
5995;SDS011;3026;53.612;7.278;2023-04-06T04:20:48;18.83;;;10.60;;
5995;SDS011;3026;53.612;7.278;2023-04-06T04:23:15;15.73;;;10.40;;
5995;SDS011;3026;53.612;7.278;2023-04-06T04:25:43;15.13;;;10.13;;
5995;SDS011;3026;53.612;7.278;2023-04-06T04:28:10;15.63;;;9.53;;
5995;SDS011;3026;53.612;7.278;2023-04-06T04:30:36;15.23;;;9.93;;
5995;SDS011;3026;53.612;7.278;2023-04-06T04:33:05;14.27;;;9.83;;
5995;SDS011;3026;53.612;7.278;2023-04-06T04:35:32;13.90;;;9.83;;
5995;SDS011;3026;53.612;7.278;2023-04-06T04:38:00;18.23;;;10.73;;
5995;SDS011;3026;53.612;7.278;2023-04-06T04:40:26;17.07;;;10.50;;
5995;SDS011;3026;53.612;7.278;2023-04-06T04:42:54;17.00;;;10.30;;
5995;SDS011;3026;53.612;7.278;2023-04-06T04:45:20;15.37;;;10.73;;
5995;SDS011;3026;53.612;7.278;2023-04-06T04:47:47;15.43;;;10.23;;
5995;SDS011;3026;53.612;7.278;2023-04-06T04:50:16;17.50;;;11.13;;
5995;SDS011;3026;53.612;7.278;2023-04-06T04:52:43;15.27;;;10.63;;
5995;SDS011;3026;53.612;7.278;2023-04-06T04:55:10;14.60;;;10.17;;
5995;SDS011;3026;53.612;7.278;2023-04-06T04:57:37;16.37;;;11.70;;
5995;SDS011;3026;53.612;7.278;2023-04-06T05:00:04;15.60;;;10.13;;
5995;SDS011;3026;53.612;7.278;2023-04-06T05:02:32;14.07;;;10.37;;
5995;SDS011;3026;53.612;7.278;2023-04-06T05:04:59;17.13;;;10.77;;
5995;SDS011;3026;53.612;7.278;2023-04-06T05:07:28;17.50;;;10.77;;
5995;SDS011;3026;53.612;7.278;2023-04-06T05:09:55;15.23;;;10.47;;
5995;SDS011;3026;53.612;7.278;2023-04-06T05:12:22;16.30;;;10.37;;
5995;SDS011;3026;53.612;7.278;2023-04-06T05:14:50;17.10;;;10.70;;
5995;SDS011;3026;53.612;7.278;2023-04-06T05:17:16;18.33;;;11.20;;
5995;SDS011;3026;53.612;7.278;2023-04-06T05:19:43;18.17;;;11.20;;
5995;SDS011;3026;53.612;7.278;2023-04-06T05:22:10;16.50;;;10.03;;
5995;SDS011;3026;53.612;7.278;2023-04-06T05:24:40;16.50;;;10.43;;
5995;SDS011;3026;53.612;7.278;2023-04-06T05:27:07;15.33;;;10.33;;
5995;SDS011;3026;53.612;7.278;2023-04-06T05:29:34;14.60;;;10.40;;
5995;SDS011;3026;53.612;7.278;2023-04-06T05:32:01;14.43;;;10.13;;
5995;SDS011;3026;53.612;7.278;2023-04-06T05:34:28;17.80;;;10.93;;
5995;SDS011;3026;53.612;7.278;2023-04-06T05:36:56;16.10;;;10.23;;
5995;SDS011;3026;53.612;7.278;2023-04-06T05:39:22;17.37;;;11.17;;
5995;SDS011;3026;53.612;7.278;2023-04-06T05:41:51;14.37;;;9.47;;
5995;SDS011;3026;53.612;7.278;2023-04-06T05:44:18;17.10;;;10.13;;
5995;SDS011;3026;53.612;7.278;2023-04-06T05:46:45;15.53;;;10.60;;
5995;SDS011;3026;53.612;7.278;2023-04-06T05:49:12;16.80;;;11.37;;
5995;SDS011;3026;53.612;7.278;2023-04-06T05:51:39;17.13;;;11.23;;
5995;SDS011;3026;53.612;7.278;2023-04-06T05:54:06;14.07;;;10.50;;
5995;SDS011;3026;53.612;7.278;2023-04-06T05:56:33;14.77;;;10.30;;
5995;SDS011;3026;53.612;7.278;2023-04-06T05:59:02;15.07;;;10.00;;
5995;SDS011;3026;53.612;7.278;2023-04-06T06:01:29;15.43;;;9.90;;
5995;SDS011;3026;53.612;7.278;2023-04-06T06:03:56;13.73;;;10.00;;
5995;SDS011;3026;53.612;7.278;2023-04-06T06:06:23;17.23;;;11.17;;
5995;SDS011;3026;53.612;7.278;2023-04-06T06:08:50;15.63;;;10.60;;
5995;SDS011;3026;53.612;7.278;2023-04-06T06:11:17;13.70;;;10.10;;
5995;SDS011;3026;53.612;7.278;2023-04-06T06:13:44;15.37;;;9.40;;
5995;SDS011;3026;53.612;7.278;2023-04-06T06:16:13;13.33;;;9.23;;
5995;SDS011;3026;53.612;7.278;2023-04-06T06:18:40;17.43;;;10.93;;
5995;SDS011;3026;53.612;7.278;2023-04-06T06:21:07;15.50;;;9.83;;
5995;SDS011;3026;53.612;7.278;2023-04-06T06:23:34;15.17;;;9.73;;
5995;SDS011;3026;53.612;7.278;2023-04-06T06:26:01;13.07;;;10.37;;
5995;SDS011;3026;53.612;7.278;2023-04-06T06:28:28;13.40;;;10.07;;
5995;SDS011;3026;53.612;7.278;2023-04-06T06:30:55;14.83;;;10.17;;
5995;SDS011;3026;53.612;7.278;2023-04-06T06:33:23;12.40;;;9.80;;
5995;SDS011;3026;53.612;7.278;2023-04-06T06:35:51;13.27;;;9.13;;
5995;SDS011;3026;53.612;7.278;2023-04-06T06:38:18;14.93;;;10.40;;
5995;SDS011;3026;53.612;7.278;2023-04-06T06:40:45;14.53;;;9.70;;
5995;SDS011;3026;53.612;7.278;2023-04-06T06:43:12;15.33;;;10.57;;
5995;SDS011;3026;53.612;7.278;2023-04-06T06:45:39;14.60;;;9.77;;
5995;SDS011;3026;53.612;7.278;2023-04-06T06:48:06;20.60;;;9.80;;
5995;SDS011;3026;53.612;7.278;2023-04-06T06:50:35;18.13;;;9.77;;
5995;SDS011;3026;53.612;7.278;2023-04-06T06:53:02;12.93;;;9.70;;
5995;SDS011;3026;53.612;7.278;2023-04-06T06:55:29;15.73;;;9.07;;
5995;SDS011;3026;53.612;7.278;2023-04-06T06:57:56;11.50;;;8.97;;
5995;SDS011;3026;53.612;7.278;2023-04-06T07:00:23;12.20;;;9.60;;
5995;SDS011;3026;53.612;7.278;2023-04-06T07:02:50;14.97;;;8.53;;
5995;SDS011;3026;53.612;7.278;2023-04-06T07:05:17;11.80;;;8.97;;
5995;SDS011;3026;53.612;7.278;2023-04-06T07:07:46;13.27;;;9.07;;
5995;SDS011;3026;53.612;7.278;2023-04-06T07:10:13;13.00;;;8.50;;
5995;SDS011;3026;53.612;7.278;2023-04-06T07:12:39;13.03;;;8.47;;
5995;SDS011;3026;53.612;7.278;2023-04-06T07:15:07;12.43;;;8.13;;
5995;SDS011;3026;53.612;7.278;2023-04-06T07:17:34;11.93;;;8.17;;
5995;SDS011;3026;53.612;7.278;2023-04-06T07:20:01;14.00;;;8.17;;
5995;SDS011;3026;53.612;7.278;2023-04-06T07:22:29;12.37;;;7.83;;
5995;SDS011;3026;53.612;7.278;2023-04-06T07:24:57;11.83;;;6.70;;
5995;SDS011;3026;53.612;7.278;2023-04-06T07:27:24;10.73;;;7.00;;
5995;SDS011;3026;53.612;7.278;2023-04-06T07:29:51;11.67;;;7.23;;
5995;SDS011;3026;53.612;7.278;2023-04-06T07:32:17;8.23;;;6.77;;
5995;SDS011;3026;53.612;7.278;2023-04-06T07:34:44;8.23;;;6.03;;
5995;SDS011;3026;53.612;7.278;2023-04-06T07:37:12;9.90;;;8.13;;
5995;SDS011;3026;53.612;7.278;2023-04-06T07:39:39;11.13;;;7.20;;
5995;SDS011;3026;53.612;7.278;2023-04-06T07:42:07;9.07;;;7.00;;
5995;SDS011;3026;53.612;7.278;2023-04-06T07:44:34;11.00;;;7.47;;
5995;SDS011;3026;53.612;7.278;2023-04-06T07:47:01;11.67;;;7.13;;
5995;SDS011;3026;53.612;7.278;2023-04-06T07:49:28;10.60;;;6.90;;
5995;SDS011;3026;53.612;7.278;2023-04-06T07:51:55;8.33;;;6.67;;
5995;SDS011;3026;53.612;7.278;2023-04-06T07:54:23;8.43;;;6.57;;
5995;SDS011;3026;53.612;7.278;2023-04-06T07:56:50;7.97;;;6.43;;
5995;SDS011;3026;53.612;7.278;2023-04-06T07:59:18;10.20;;;7.50;;
5995;SDS011;3026;53.612;7.278;2023-04-06T08:01:45;8.80;;;7.33;;
5995;SDS011;3026;53.612;7.278;2023-04-06T08:04:12;10.60;;;6.73;;
5995;SDS011;3026;53.612;7.278;2023-04-06T08:06:39;7.57;;;6.10;;
5995;SDS011;3026;53.612;7.278;2023-04-06T08:09:06;8.50;;;6.53;;
5995;SDS011;3026;53.612;7.278;2023-04-06T08:11:33;7.87;;;6.40;;
5995;SDS011;3026;53.612;7.278;2023-04-06T08:14:00;9.43;;;6.23;;
5995;SDS011;3026;53.612;7.278;2023-04-06T08:16:29;8.70;;;6.30;;
5995;SDS011;3026;53.612;7.278;2023-04-06T08:18:55;10.27;;;6.53;;
5995;SDS011;3026;53.612;7.278;2023-04-06T08:21:22;8.40;;;6.13;;
5995;SDS011;3026;53.612;7.278;2023-04-06T08:23:50;8.33;;;6.57;;
5995;SDS011;3026;53.612;7.278;2023-04-06T08:26:17;14.53;;;7.33;;
5995;SDS011;3026;53.612;7.278;2023-04-06T08:28:45;11.13;;;6.50;;
5995;SDS011;3026;53.612;7.278;2023-04-06T08:31:11;10.23;;;6.40;;
5995;SDS011;3026;53.612;7.278;2023-04-06T08:33:40;7.93;;;6.10;;
5995;SDS011;3026;53.612;7.278;2023-04-06T08:36:10;7.77;;;5.93;;
5995;SDS011;3026;53.612;7.278;2023-04-06T08:38:39;8.83;;;6.47;;
5995;SDS011;3026;53.612;7.278;2023-04-06T08:41:08;7.90;;;5.93;;
5995;SDS011;3026;53.612;7.278;2023-04-06T08:43:37;7.57;;;5.80;;
5995;SDS011;3026;53.612;7.278;2023-04-06T08:46:09;8.83;;;5.77;;
5995;SDS011;3026;53.612;7.278;2023-04-06T08:48:38;7.53;;;5.80;;
5995;SDS011;3026;53.612;7.278;2023-04-06T08:51:07;10.13;;;5.70;;
5995;SDS011;3026;53.612;7.278;2023-04-06T08:53:35;8.70;;;5.90;;
5995;SDS011;3026;53.612;7.278;2023-04-06T08:56:03;9.37;;;6.13;;
5995;SDS011;3026;53.612;7.278;2023-04-06T08:58:32;7.50;;;6.03;;
5995;SDS011;3026;53.612;7.278;2023-04-06T09:01:00;9.00;;;6.07;;
5995;SDS011;3026;53.612;7.278;2023-04-06T09:03:32;9.50;;;6.23;;
5995;SDS011;3026;53.612;7.278;2023-04-06T09:06:04;11.67;;;6.50;;
5995;SDS011;3026;53.612;7.278;2023-04-06T09:08:32;6.63;;;5.57;;
5995;SDS011;3026;53.612;7.278;2023-04-06T09:11:00;10.53;;;6.00;;
5995;SDS011;3026;53.612;7.278;2023-04-06T09:13:28;6.77;;;5.80;;
5995;SDS011;3026;53.612;7.278;2023-04-06T09:15:59;7.80;;;6.67;;
5995;SDS011;3026;53.612;7.278;2023-04-06T09:18:30;6.63;;;5.20;;
5995;SDS011;3026;53.612;7.278;2023-04-06T09:20:58;7.07;;;5.27;;
5995;SDS011;3026;53.612;7.278;2023-04-06T09:23:28;8.40;;;5.67;;
5995;SDS011;3026;53.612;7.278;2023-04-06T09:26:05;8.10;;;5.87;;
5995;SDS011;3026;53.612;7.278;2023-04-06T09:28:45;9.67;;;5.43;;
5995;SDS011;3026;53.612;7.278;2023-04-06T09:31:14;8.33;;;5.57;;
5995;SDS011;3026;53.612;7.278;2023-04-06T09:33:43;7.03;;;5.73;;
5995;SDS011;3026;53.612;7.278;2023-04-06T09:36:10;7.60;;;5.07;;
5995;SDS011;3026;53.612;7.278;2023-04-06T09:38:52;11.07;;;5.87;;
5995;SDS011;3026;53.612;7.278;2023-04-06T09:41:21;6.77;;;5.30;;
5995;SDS011;3026;53.612;7.278;2023-04-06T09:43:49;6.63;;;5.17;;
5995;SDS011;3026;53.612;7.278;2023-04-06T09:46:17;9.47;;;5.30;;
5995;SDS011;3026;53.612;7.278;2023-04-06T09:48:47;7.00;;;5.70;;
5995;SDS011;3026;53.612;7.278;2023-04-06T09:51:16;6.63;;;5.67;;
5995;SDS011;3026;53.612;7.278;2023-04-06T09:53:45;9.47;;;5.70;;
5995;SDS011;3026;53.612;7.278;2023-04-06T09:56:20;6.47;;;5.63;;
5995;SDS011;3026;53.612;7.278;2023-04-06T09:58:52;9.17;;;6.03;;
5995;SDS011;3026;53.612;7.278;2023-04-06T10:01:25;7.37;;;5.97;;
5995;SDS011;3026;53.612;7.278;2023-04-06T10:03:56;7.73;;;6.00;;
5995;SDS011;3026;53.612;7.278;2023-04-06T10:06:33;7.50;;;5.83;;
5995;SDS011;3026;53.612;7.278;2023-04-06T10:09:01;9.20;;;5.63;;
5995;SDS011;3026;53.612;7.278;2023-04-06T10:11:32;9.67;;;5.87;;
5995;SDS011;3026;53.612;7.278;2023-04-06T10:14:00;8.87;;;5.93;;
5995;SDS011;3026;53.612;7.278;2023-04-06T10:16:28;7.43;;;6.03;;
5995;SDS011;3026;53.612;7.278;2023-04-06T10:18:56;7.90;;;6.27;;
5995;SDS011;3026;53.612;7.278;2023-04-06T10:21:28;7.40;;;5.70;;
5995;SDS011;3026;53.612;7.278;2023-04-06T10:23:58;8.17;;;6.63;;
5995;SDS011;3026;53.612;7.278;2023-04-06T10:26:27;11.70;;;6.20;;
5995;SDS011;3026;53.612;7.278;2023-04-06T10:29:02;10.03;;;6.27;;
5995;SDS011;3026;53.612;7.278;2023-04-06T10:31:29;8.33;;;7.00;;
5995;SDS011;3026;53.612;7.278;2023-04-06T10:33:57;11.30;;;6.27;;
5995;SDS011;3026;53.612;7.278;2023-04-06T10:36:25;9.40;;;7.03;;
5995;SDS011;3026;53.612;7.278;2023-04-06T10:38:54;9.80;;;6.43;;
5995;SDS011;3026;53.612;7.278;2023-04-06T10:41:22;8.90;;;7.37;;
5995;SDS011;3026;53.612;7.278;2023-04-06T10:43:56;10.83;;;7.40;;
5995;SDS011;3026;53.612;7.278;2023-04-06T10:46:26;8.37;;;6.73;;
5995;SDS011;3026;53.612;7.278;2023-04-06T10:48:55;10.60;;;7.20;;
5995;SDS011;3026;53.612;7.278;2023-04-06T10:51:24;9.07;;;7.07;;
5995;SDS011;3026;53.612;7.278;2023-04-06T10:53:53;10.20;;;7.90;;
5995;SDS011;3026;53.612;7.278;2023-04-06T10:56:21;8.80;;;7.40;;
5995;SDS011;3026;53.612;7.278;2023-04-06T10:58:51;8.73;;;7.20;;
5995;SDS011;3026;53.612;7.278;2023-04-06T11:01:22;12.47;;;8.47;;
5995;SDS011;3026;53.612;7.278;2023-04-06T11:03:50;10.23;;;8.17;;
5995;SDS011;3026;53.612;7.278;2023-04-06T11:06:19;10.13;;;7.17;;
5995;SDS011;3026;53.612;7.278;2023-04-06T11:08:47;10.17;;;7.97;;
5995;SDS011;3026;53.612;7.278;2023-04-06T11:11:15;11.53;;;8.80;;
5995;SDS011;3026;53.612;7.278;2023-04-06T11:13:44;10.43;;;7.30;;
5995;SDS011;3026;53.612;7.278;2023-04-06T11:16:12;10.97;;;7.87;;
5995;SDS011;3026;53.612;7.278;2023-04-06T11:18:51;9.97;;;8.70;;
5995;SDS011;3026;53.612;7.278;2023-04-06T11:21:31;9.73;;;8.27;;
5995;SDS011;3026;53.612;7.278;2023-04-06T11:24:09;9.57;;;8.17;;
5995;SDS011;3026;53.612;7.278;2023-04-06T11:26:37;14.03;;;9.43;;
5995;SDS011;3026;53.612;7.278;2023-04-06T11:29:05;11.13;;;8.90;;
5995;SDS011;3026;53.612;7.278;2023-04-06T11:31:37;12.40;;;8.70;;
5995;SDS011;3026;53.612;7.278;2023-04-06T11:34:10;11.67;;;9.60;;
5995;SDS011;3026;53.612;7.278;2023-04-06T11:36:39;12.10;;;9.63;;
5995;SDS011;3026;53.612;7.278;2023-04-06T11:39:08;12.33;;;9.70;;
5995;SDS011;3026;53.612;7.278;2023-04-06T11:41:36;14.00;;;10.00;;
5995;SDS011;3026;53.612;7.278;2023-04-06T11:44:03;17.93;;;9.90;;
5995;SDS011;3026;53.612;7.278;2023-04-06T11:46:31;13.33;;;9.87;;
5995;SDS011;3026;53.612;7.278;2023-04-06T11:48:58;14.67;;;10.80;;
5995;SDS011;3026;53.612;7.278;2023-04-06T11:51:28;14.87;;;10.23;;
5995;SDS011;3026;53.612;7.278;2023-04-06T11:53:55;17.63;;;10.73;;
5995;SDS011;3026;53.612;7.278;2023-04-06T11:56:23;20.13;;;11.73;;
5995;SDS011;3026;53.612;7.278;2023-04-06T11:58:54;15.13;;;11.10;;
5995;SDS011;3026;53.612;7.278;2023-04-06T12:01:21;13.50;;;11.67;;
5995;SDS011;3026;53.612;7.278;2023-04-06T12:03:48;13.60;;;11.00;;
5995;SDS011;3026;53.612;7.278;2023-04-06T12:06:16;14.43;;;10.47;;
5995;SDS011;3026;53.612;7.278;2023-04-06T12:08:44;17.53;;;11.67;;
5995;SDS011;3026;53.612;7.278;2023-04-06T12:11:11;13.50;;;10.63;;
5995;SDS011;3026;53.612;7.278;2023-04-06T12:13:38;14.30;;;10.87;;
5995;SDS011;3026;53.612;7.278;2023-04-06T12:16:05;13.70;;;9.90;;
5995;SDS011;3026;53.612;7.278;2023-04-06T12:18:32;13.70;;;10.83;;
5995;SDS011;3026;53.612;7.278;2023-04-06T12:20:59;13.93;;;9.90;;
5995;SDS011;3026;53.612;7.278;2023-04-06T12:23:26;14.93;;;11.37;;
5995;SDS011;3026;53.612;7.278;2023-04-06T12:25:55;16.23;;;11.37;;
5995;SDS011;3026;53.612;7.278;2023-04-06T12:28:22;15.93;;;11.20;;
5995;SDS011;3026;53.612;7.278;2023-04-06T12:30:52;15.80;;;10.80;;
5995;SDS011;3026;53.612;7.278;2023-04-06T12:33:19;12.80;;;10.73;;
5995;SDS011;3026;53.612;7.278;2023-04-06T12:35:46;14.30;;;11.33;;
5995;SDS011;3026;53.612;7.278;2023-04-06T12:38:13;15.30;;;11.50;;
5995;SDS011;3026;53.612;7.278;2023-04-06T12:40:41;13.90;;;10.37;;
5995;SDS011;3026;53.612;7.278;2023-04-06T12:43:09;18.17;;;10.53;;
5995;SDS011;3026;53.612;7.278;2023-04-06T12:45:38;12.57;;;10.33;;
5995;SDS011;3026;53.612;7.278;2023-04-06T12:48:05;17.17;;;11.43;;
5995;SDS011;3026;53.612;7.278;2023-04-06T12:50:32;14.80;;;10.83;;
5995;SDS011;3026;53.612;7.278;2023-04-06T12:52:59;12.50;;;10.17;;
5995;SDS011;3026;53.612;7.278;2023-04-06T12:55:29;17.17;;;11.93;;
5995;SDS011;3026;53.612;7.278;2023-04-06T12:57:56;15.70;;;10.87;;
5995;SDS011;3026;53.612;7.278;2023-04-06T13:00:24;14.20;;;10.80;;
5995;SDS011;3026;53.612;7.278;2023-04-06T13:02:51;17.83;;;10.03;;
5995;SDS011;3026;53.612;7.278;2023-04-06T13:05:18;14.33;;;11.17;;
5995;SDS011;3026;53.612;7.278;2023-04-06T13:07:45;14.43;;;10.47;;
5995;SDS011;3026;53.612;7.278;2023-04-06T13:10:12;15.30;;;10.13;;
5995;SDS011;3026;53.612;7.278;2023-04-06T13:12:39;13.40;;;10.07;;
5995;SDS011;3026;53.612;7.278;2023-04-06T13:15:06;14.23;;;10.50;;
5995;SDS011;3026;53.612;7.278;2023-04-06T13:17:35;15.97;;;10.90;;
5995;SDS011;3026;53.612;7.278;2023-04-06T13:20:02;14.07;;;10.47;;
5995;SDS011;3026;53.612;7.278;2023-04-06T13:22:31;15.40;;;11.10;;
5995;SDS011;3026;53.612;7.278;2023-04-06T13:24:59;16.67;;;10.53;;
5995;SDS011;3026;53.612;7.278;2023-04-06T13:27:25;17.20;;;11.33;;
5995;SDS011;3026;53.612;7.278;2023-04-06T13:29:53;14.63;;;11.00;;
5995;SDS011;3026;53.612;7.278;2023-04-06T13:32:21;22.23;;;11.73;;
5995;SDS011;3026;53.612;7.278;2023-04-06T13:34:49;14.63;;;10.63;;
5995;SDS011;3026;53.612;7.278;2023-04-06T13:37:18;15.97;;;10.70;;
5995;SDS011;3026;53.612;7.278;2023-04-06T13:39:45;15.40;;;10.47;;
5995;SDS011;3026;53.612;7.278;2023-04-06T13:42:12;14.97;;;11.27;;
5995;SDS011;3026;53.612;7.278;2023-04-06T13:44:39;15.23;;;11.97;;
5995;SDS011;3026;53.612;7.278;2023-04-06T13:47:06;14.23;;;11.03;;
5995;SDS011;3026;53.612;7.278;2023-04-06T13:49:32;14.17;;;11.43;;
5995;SDS011;3026;53.612;7.278;2023-04-06T13:52:02;13.37;;;10.67;;
5995;SDS011;3026;53.612;7.278;2023-04-06T13:54:29;17.07;;;11.60;;
5995;SDS011;3026;53.612;7.278;2023-04-06T13:56:56;13.67;;;11.20;;
5995;SDS011;3026;53.612;7.278;2023-04-06T13:59:23;14.23;;;11.47;;
5995;SDS011;3026;53.612;7.278;2023-04-06T14:01:49;13.97;;;11.30;;
5995;SDS011;3026;53.612;7.278;2023-04-06T14:04:16;16.87;;;12.07;;
5995;SDS011;3026;53.612;7.278;2023-04-06T14:06:44;17.50;;;13.10;;
5995;SDS011;3026;53.612;7.278;2023-04-06T14:09:13;18.30;;;12.40;;
5995;SDS011;3026;53.612;7.278;2023-04-06T14:11:40;14.13;;;11.07;;
5995;SDS011;3026;53.612;7.278;2023-04-06T14:14:06;16.47;;;12.13;;
5995;SDS011;3026;53.612;7.278;2023-04-06T14:16:34;14.00;;;11.50;;
5995;SDS011;3026;53.612;7.278;2023-04-06T14:19:01;14.47;;;11.50;;
5995;SDS011;3026;53.612;7.278;2023-04-06T14:21:27;12.57;;;10.33;;
5995;SDS011;3026;53.612;7.278;2023-04-06T14:23:54;18.33;;;12.70;;
5995;SDS011;3026;53.612;7.278;2023-04-06T14:26:23;17.07;;;13.00;;
5995;SDS011;3026;53.612;7.278;2023-04-06T14:28:49;15.77;;;11.70;;
5995;SDS011;3026;53.612;7.278;2023-04-06T14:31:16;15.67;;;12.13;;
5995;SDS011;3026;53.612;7.278;2023-04-06T14:33:44;15.40;;;11.37;;
5995;SDS011;3026;53.612;7.278;2023-04-06T14:36:11;16.83;;;12.23;;
5995;SDS011;3026;53.612;7.278;2023-04-06T14:38:37;16.33;;;11.10;;
5995;SDS011;3026;53.612;7.278;2023-04-06T14:41:05;16.20;;;11.37;;
5995;SDS011;3026;53.612;7.278;2023-04-06T14:43:33;17.97;;;12.07;;
5995;SDS011;3026;53.612;7.278;2023-04-06T14:46:00;16.67;;;11.53;;
5995;SDS011;3026;53.612;7.278;2023-04-06T14:48:27;18.20;;;12.00;;
5995;SDS011;3026;53.612;7.278;2023-04-06T14:50:54;14.97;;;11.90;;
5995;SDS011;3026;53.612;7.278;2023-04-06T14:53:22;14.63;;;11.23;;
5995;SDS011;3026;53.612;7.278;2023-04-06T14:55:49;16.37;;;11.03;;
5995;SDS011;3026;53.612;7.278;2023-04-06T14:58:16;16.27;;;10.70;;
5995;SDS011;3026;53.612;7.278;2023-04-06T15:00:45;17.30;;;11.70;;
5995;SDS011;3026;53.612;7.278;2023-04-06T15:03:12;13.57;;;11.03;;